sensor_id;sensor_type;location;lat;lon;timestamp;temperature;humidity
24252;DHT22;12380;51.118;4.176;2023-01-04T00:01:46;9.20;99.90
24252;DHT22;12380;51.118;4.176;2023-01-04T00:04:11;9.30;99.90
24252;DHT22;12380;51.118;4.176;2023-01-04T00:06:37;9.20;99.90
24252;DHT22;12380;51.118;4.176;2023-01-04T00:09:03;9.30;99.90
24252;DHT22;12380;51.118;4.176;2023-01-04T00:11:29;9.30;99.90
24252;DHT22;12380;51.118;4.176;2023-01-04T00:13:55;9.30;99.90
24252;DHT22;12380;51.118;4.176;2023-01-04T00:16:22;9.40;99.90
24252;DHT22;12380;51.118;4.176;2023-01-04T00:18:48;9.40;99.90
24252;DHT22;12380;51.118;4.176;2023-01-04T00:21:15;9.40;99.90
24252;DHT22;12380;51.118;4.176;2023-01-04T00:23:42;9.40;99.90
24252;DHT22;12380;51.118;4.176;2023-01-04T00:26:09;9.40;99.90
24252;DHT22;12380;51.118;4.176;2023-01-04T00:28:36;9.50;99.90
24252;DHT22;12380;51.118;4.176;2023-01-04T00:31:02;9.50;99.90
24252;DHT22;12380;51.118;4.176;2023-01-04T00:33:28;9.60;99.90
24252;DHT22;12380;51.118;4.176;2023-01-04T00:35:54;9.60;99.90
24252;DHT22;12380;51.118;4.176;2023-01-04T00:38:20;9.60;99.90
24252;DHT22;12380;51.118;4.176;2023-01-04T00:40:46;9.60;99.90
24252;DHT22;12380;51.118;4.176;2023-01-04T00:43:13;9.60;99.90
24252;DHT22;12380;51.118;4.176;2023-01-04T00:45:38;9.60;99.90
24252;DHT22;12380;51.118;4.176;2023-01-04T00:48:04;9.60;99.90
24252;DHT22;12380;51.118;4.176;2023-01-04T00:50:34;9.60;99.90
24252;DHT22;12380;51.118;4.176;2023-01-04T00:53:02;9.60;99.90
24252;DHT22;12380;51.118;4.176;2023-01-04T00:55:28;9.70;99.90
24252;DHT22;12380;51.118;4.176;2023-01-04T00:57:56;9.70;99.90
24252;DHT22;12380;51.118;4.176;2023-01-04T01:00:23;9.70;99.90
24252;DHT22;12380;51.118;4.176;2023-01-04T01:02:49;9.70;99.90
24252;DHT22;12380;51.118;4.176;2023-01-04T01:05:15;9.70;99.90
24252;DHT22;12380;51.118;4.176;2023-01-04T01:07:40;9.70;99.90
24252;DHT22;12380;51.118;4.176;2023-01-04T01:10:06;9.70;99.90
24252;DHT22;12380;51.118;4.176;2023-01-04T01:12:34;9.80;99.90
24252;DHT22;12380;51.118;4.176;2023-01-04T01:15:00;9.80;99.90
24252;DHT22;12380;51.118;4.176;2023-01-04T01:17:26;9.70;99.90
24252;DHT22;12380;51.118;4.176;2023-01-04T01:19:58;9.70;99.90
24252;DHT22;12380;51.118;4.176;2023-01-04T01:22:24;9.80;99.90
24252;DHT22;12380;51.118;4.176;2023-01-04T01:24:50;9.80;99.90
24252;DHT22;12380;51.118;4.176;2023-01-04T01:27:15;9.80;99.90
24252;DHT22;12380;51.118;4.176;2023-01-04T01:29:41;9.80;99.90
24252;DHT22;12380;51.118;4.176;2023-01-04T01:32:07;9.80;99.90
24252;DHT22;12380;51.118;4.176;2023-01-04T01:34:33;9.80;99.90
24252;DHT22;12380;51.118;4.176;2023-01-04T01:36:59;9.90;99.90
24252;DHT22;12380;51.118;4.176;2023-01-04T01:39:24;9.90;99.90
24252;DHT22;12380;51.118;4.176;2023-01-04T01:41:51;10.00;99.90
24252;DHT22;12380;51.118;4.176;2023-01-04T01:47:00;10.00;99.90
24252;DHT22;12380;51.118;4.176;2023-01-04T01:49:31;10.00;99.90
24252;DHT22;12380;51.118;4.176;2023-01-04T01:51:58;10.00;99.90
24252;DHT22;12380;51.118;4.176;2023-01-04T01:54:28;10.00;99.90
24252;DHT22;12380;51.118;4.176;2023-01-04T01:56:56;10.00;99.90
24252;DHT22;12380;51.118;4.176;2023-01-04T01:59:24;10.10;99.90
24252;DHT22;12380;51.118;4.176;2023-01-04T02:01:50;10.00;99.90
24252;DHT22;12380;51.118;4.176;2023-01-04T02:04:16;10.10;99.90
24252;DHT22;12380;51.118;4.176;2023-01-04T02:06:43;10.10;99.90
24252;DHT22;12380;51.118;4.176;2023-01-04T02:09:11;10.00;99.90
24252;DHT22;12380;51.118;4.176;2023-01-04T02:11:37;10.10;99.90
24252;DHT22;12380;51.118;4.176;2023-01-04T02:14:02;10.10;99.90
24252;DHT22;12380;51.118;4.176;2023-01-04T02:35:30;10.30;99.90
24252;DHT22;12380;51.118;4.176;2023-01-04T02:38:02;10.30;99.90
24252;DHT22;12380;51.118;4.176;2023-01-04T02:46:21;10.40;99.90
24252;DHT22;12380;51.118;4.176;2023-01-04T02:48:48;10.50;99.90
24252;DHT22;12380;51.118;4.176;2023-01-04T02:51:33;10.40;99.90
24252;DHT22;12380;51.118;4.176;2023-01-04T02:54:01;10.40;99.90
24252;DHT22;12380;51.118;4.176;2023-01-04T03:07:25;10.40;99.90
24252;DHT22;12380;51.118;4.176;2023-01-04T03:09:53;10.40;99.90
24252;DHT22;12380;51.118;4.176;2023-01-04T03:12:23;10.40;99.90
24252;DHT22;12380;51.118;4.176;2023-01-04T03:15:03;10.40;99.90
24252;DHT22;12380;51.118;4.176;2023-01-04T03:17:32;10.40;99.90
24252;DHT22;12380;51.118;4.176;2023-01-04T03:20:00;10.40;99.90
24252;DHT22;12380;51.118;4.176;2023-01-04T03:22:33;10.40;99.90
24252;DHT22;12380;51.118;4.176;2023-01-04T03:25:21;10.40;99.90
24252;DHT22;12380;51.118;4.176;2023-01-04T03:28:06;10.40;99.90
24252;DHT22;12380;51.118;4.176;2023-01-04T03:30:55;10.40;99.90
24252;DHT22;12380;51.118;4.176;2023-01-04T03:33:41;10.50;99.90
24252;DHT22;12380;51.118;4.176;2023-01-04T03:36:28;10.50;99.90
24252;DHT22;12380;51.118;4.176;2023-01-04T03:39:17;10.50;99.90
24252;DHT22;12380;51.118;4.176;2023-01-04T03:42:09;10.60;99.90
24252;DHT22;12380;51.118;4.176;2023-01-04T03:48:15;10.70;99.90
24252;DHT22;12380;51.118;4.176;2023-01-04T03:53:25;10.70;99.90
24252;DHT22;12380;51.118;4.176;2023-01-04T03:55:52;10.70;99.90
24252;DHT22;12380;51.118;4.176;2023-01-04T03:58:19;10.70;99.90
24252;DHT22;12380;51.118;4.176;2023-01-04T04:00:45;10.80;99.90
24252;DHT22;12380;51.118;4.176;2023-01-04T04:03:12;10.80;99.90
24252;DHT22;12380;51.118;4.176;2023-01-04T04:05:39;10.80;99.90
24252;DHT22;12380;51.118;4.176;2023-01-04T04:08:24;10.80;99.90
24252;DHT22;12380;51.118;4.176;2023-01-04T04:10:54;10.90;99.90
24252;DHT22;12380;51.118;4.176;2023-01-04T04:13:20;10.90;99.90
24252;DHT22;12380;51.118;4.176;2023-01-04T04:15:47;10.90;99.90
24252;DHT22;12380;51.118;4.176;2023-01-04T04:18:13;10.90;99.90
24252;DHT22;12380;51.118;4.176;2023-01-04T04:20:41;10.90;99.90
24252;DHT22;12380;51.118;4.176;2023-01-04T04:23:09;11.00;99.90
24252;DHT22;12380;51.118;4.176;2023-01-04T04:25:38;11.00;99.90
24252;DHT22;12380;51.118;4.176;2023-01-04T04:28:04;11.00;99.90
24252;DHT22;12380;51.118;4.176;2023-01-04T04:30:30;11.00;99.90
24252;DHT22;12380;51.118;4.176;2023-01-04T04:32:59;11.00;99.90
24252;DHT22;12380;51.118;4.176;2023-01-04T04:35:25;11.00;99.90
24252;DHT22;12380;51.118;4.176;2023-01-04T04:37:51;11.10;99.90
24252;DHT22;12380;51.118;4.176;2023-01-04T04:40:17;11.00;99.90
24252;DHT22;12380;51.118;4.176;2023-01-04T04:43:01;11.00;99.90
24252;DHT22;12380;51.118;4.176;2023-01-04T04:45:30;10.90;99.90
24252;DHT22;12380;51.118;4.176;2023-01-04T04:47:56;10.90;99.90
24252;DHT22;12380;51.118;4.176;2023-01-04T04:50:22;10.90;99.90
24252;DHT22;12380;51.118;4.176;2023-01-04T04:52:48;11.00;99.90
24252;DHT22;12380;51.118;4.176;2023-01-04T04:55:14;11.00;99.90
24252;DHT22;12380;51.118;4.176;2023-01-04T04:57:42;11.00;99.90
24252;DHT22;12380;51.118;4.176;2023-01-04T05:00:10;11.10;99.90
24252;DHT22;12380;51.118;4.176;2023-01-04T05:02:36;11.10;99.90
24252;DHT22;12380;51.118;4.176;2023-01-04T05:05:01;11.10;99.90
24252;DHT22;12380;51.118;4.176;2023-01-04T05:07:27;11.10;99.90
24252;DHT22;12380;51.118;4.176;2023-01-04T05:09:55;11.20;99.90
24252;DHT22;12380;51.118;4.176;2023-01-04T05:12:20;11.20;99.90
24252;DHT22;12380;51.118;4.176;2023-01-04T05:15:05;11.20;99.90
24252;DHT22;12380;51.118;4.176;2023-01-04T05:17:30;11.10;99.90
24252;DHT22;12380;51.118;4.176;2023-01-04T05:19:56;11.20;99.90
24252;DHT22;12380;51.118;4.176;2023-01-04T05:22:22;11.20;99.90
24252;DHT22;12380;51.118;4.176;2023-01-04T05:24:47;11.20;99.90
24252;DHT22;12380;51.118;4.176;2023-01-04T05:27:13;11.20;99.90
24252;DHT22;12380;51.118;4.176;2023-01-04T05:29:38;11.10;99.90
24252;DHT22;12380;51.118;4.176;2023-01-04T05:32:23;11.10;99.90
24252;DHT22;12380;51.118;4.176;2023-01-04T05:34:48;11.10;99.90
24252;DHT22;12380;51.118;4.176;2023-01-04T05:37:14;11.10;99.90
24252;DHT22;12380;51.118;4.176;2023-01-04T05:39:39;11.10;99.90
24252;DHT22;12380;51.118;4.176;2023-01-04T05:42:05;11.10;99.90
24252;DHT22;12380;51.118;4.176;2023-01-04T05:44:49;11.10;99.90
24252;DHT22;12380;51.118;4.176;2023-01-04T05:47:15;11.10;99.90
24252;DHT22;12380;51.118;4.176;2023-01-04T05:49:43;11.10;99.90
24252;DHT22;12380;51.118;4.176;2023-01-04T05:52:08;11.00;99.90
24252;DHT22;12380;51.118;4.176;2023-01-04T05:54:34;11.10;99.90
24252;DHT22;12380;51.118;4.176;2023-01-04T05:57:02;11.00;99.90
24252;DHT22;12380;51.118;4.176;2023-01-04T05:59:29;11.00;99.90
24252;DHT22;12380;51.118;4.176;2023-01-04T06:01:57;11.00;99.90
24252;DHT22;12380;51.118;4.176;2023-01-04T06:04:23;11.00;99.90
24252;DHT22;12380;51.118;4.176;2023-01-04T06:06:51;11.00;99.90
24252;DHT22;12380;51.118;4.176;2023-01-04T06:09:17;11.00;99.90
24252;DHT22;12380;51.118;4.176;2023-01-04T06:11:43;11.00;99.90
24252;DHT22;12380;51.118;4.176;2023-01-04T06:14:08;11.00;99.90
24252;DHT22;12380;51.118;4.176;2023-01-04T06:16:35;11.00;99.90
24252;DHT22;12380;51.118;4.176;2023-01-04T06:19:00;11.00;99.90
24252;DHT22;12380;51.118;4.176;2023-01-04T06:21:27;11.10;99.90
24252;DHT22;12380;51.118;4.176;2023-01-04T06:23:53;11.10;99.90
24252;DHT22;12380;51.118;4.176;2023-01-04T06:26:19;11.10;99.90
24252;DHT22;12380;51.118;4.176;2023-01-04T06:28:45;11.20;99.90
24252;DHT22;12380;51.118;4.176;2023-01-04T06:31:11;11.20;99.90
24252;DHT22;12380;51.118;4.176;2023-01-04T06:33:37;11.30;99.90
24252;DHT22;12380;51.118;4.176;2023-01-04T06:36:05;11.30;99.90
24252;DHT22;12380;51.118;4.176;2023-01-04T06:38:33;11.30;99.90
24252;DHT22;12380;51.118;4.176;2023-01-04T06:40:59;11.20;99.90
24252;DHT22;12380;51.118;4.176;2023-01-04T06:43:25;11.20;99.90
24252;DHT22;12380;51.118;4.176;2023-01-04T06:45:51;11.30;99.90
24252;DHT22;12380;51.118;4.176;2023-01-04T06:48:20;11.30;99.90
24252;DHT22;12380;51.118;4.176;2023-01-04T06:50:45;11.40;99.90
24252;DHT22;12380;51.118;4.176;2023-01-04T06:53:11;11.40;99.90
24252;DHT22;12380;51.118;4.176;2023-01-04T06:55:39;11.40;99.90
24252;DHT22;12380;51.118;4.176;2023-01-04T06:58:05;11.40;99.90
24252;DHT22;12380;51.118;4.176;2023-01-04T07:00:30;11.50;99.90
24252;DHT22;12380;51.118;4.176;2023-01-04T07:02:59;11.50;99.90
24252;DHT22;12380;51.118;4.176;2023-01-04T07:05:27;11.50;99.90
24252;DHT22;12380;51.118;4.176;2023-01-04T07:07:52;11.50;99.90
24252;DHT22;12380;51.118;4.176;2023-01-04T07:10:23;11.60;99.90
24252;DHT22;12380;51.118;4.176;2023-01-04T07:12:49;11.60;99.90
24252;DHT22;12380;51.118;4.176;2023-01-04T07:15:15;11.60;99.90
24252;DHT22;12380;51.118;4.176;2023-01-04T07:17:40;11.60;99.90
24252;DHT22;12380;51.118;4.176;2023-01-04T07:20:06;11.60;99.90
24252;DHT22;12380;51.118;4.176;2023-01-04T07:22:32;11.60;99.90
24252;DHT22;12380;51.118;4.176;2023-01-04T07:24:59;11.50;99.90
24252;DHT22;12380;51.118;4.176;2023-01-04T07:27:24;11.50;99.90
24252;DHT22;12380;51.118;4.176;2023-01-04T07:29:50;11.50;99.90
24252;DHT22;12380;51.118;4.176;2023-01-04T07:32:16;11.50;99.90
24252;DHT22;12380;51.118;4.176;2023-01-04T07:34:42;11.40;99.90
24252;DHT22;12380;51.118;4.176;2023-01-04T07:37:09;11.40;99.90
24252;DHT22;12380;51.118;4.176;2023-01-04T07:39:41;11.40;99.90
24252;DHT22;12380;51.118;4.176;2023-01-04T07:42:08;11.40;99.90
24252;DHT22;12380;51.118;4.176;2023-01-04T07:44:34;11.50;99.90
24252;DHT22;12380;51.118;4.176;2023-01-04T07:47:05;11.50;99.90
24252;DHT22;12380;51.118;4.176;2023-01-04T07:49:30;11.60;99.90
24252;DHT22;12380;51.118;4.176;2023-01-04T07:51:56;11.70;99.90
24252;DHT22;12380;51.118;4.176;2023-01-04T07:54:22;11.80;99.90
24252;DHT22;12380;51.118;4.176;2023-01-04T07:56:49;11.80;99.90
24252;DHT22;12380;51.118;4.176;2023-01-04T07:59:15;11.90;99.90
24252;DHT22;12380;51.118;4.176;2023-01-04T08:01:42;12.00;99.90
24252;DHT22;12380;51.118;4.176;2023-01-04T08:04:08;12.00;99.90
24252;DHT22;12380;51.118;4.176;2023-01-04T08:06:34;12.00;99.90
24252;DHT22;12380;51.118;4.176;2023-01-04T08:09:00;12.00;99.90
24252;DHT22;12380;51.118;4.176;2023-01-04T08:11:27;12.00;99.90
24252;DHT22;12380;51.118;4.176;2023-01-04T08:13:52;12.00;99.90
24252;DHT22;12380;51.118;4.176;2023-01-04T08:16:19;12.00;99.90
24252;DHT22;12380;51.118;4.176;2023-01-04T08:18:45;12.10;99.90
24252;DHT22;12380;51.118;4.176;2023-01-04T08:21:11;12.10;99.90
24252;DHT22;12380;51.118;4.176;2023-01-04T08:23:36;12.10;99.90
24252;DHT22;12380;51.118;4.176;2023-01-04T08:26:06;12.10;99.90
24252;DHT22;12380;51.118;4.176;2023-01-04T08:28:35;12.10;99.90
24252;DHT22;12380;51.118;4.176;2023-01-04T08:31:11;12.10;99.90
24252;DHT22;12380;51.118;4.176;2023-01-04T08:33:37;12.10;99.90
24252;DHT22;12380;51.118;4.176;2023-01-04T08:36:17;12.10;99.90
24252;DHT22;12380;51.118;4.176;2023-01-04T08:38:44;12.10;99.90
24252;DHT22;12380;51.118;4.176;2023-01-04T08:41:09;12.10;99.90
24252;DHT22;12380;51.118;4.176;2023-01-04T08:43:35;12.10;99.90
24252;DHT22;12380;51.118;4.176;2023-01-04T08:46:01;12.10;99.90
24252;DHT22;12380;51.118;4.176;2023-01-04T08:48:27;12.00;99.90
24252;DHT22;12380;51.118;4.176;2023-01-04T08:50:52;12.10;99.90
24252;DHT22;12380;51.118;4.176;2023-01-04T08:53:20;12.10;99.90
24252;DHT22;12380;51.118;4.176;2023-01-04T08:55:48;12.10;99.90
24252;DHT22;12380;51.118;4.176;2023-01-04T08:58:14;12.20;99.90
24252;DHT22;12380;51.118;4.176;2023-01-04T09:00:40;12.20;99.90
24252;DHT22;12380;51.118;4.176;2023-01-04T09:03:06;12.20;99.90
24252;DHT22;12380;51.118;4.176;2023-01-04T09:05:35;12.30;99.90
24252;DHT22;12380;51.118;4.176;2023-01-04T09:08:01;12.30;99.90
24252;DHT22;12380;51.118;4.176;2023-01-04T09:10:27;12.30;99.90
24252;DHT22;12380;51.118;4.176;2023-01-04T09:12:53;12.30;99.90
24252;DHT22;12380;51.118;4.176;2023-01-04T09:15:19;12.30;99.90
24252;DHT22;12380;51.118;4.176;2023-01-04T09:17:46;12.30;99.90
24252;DHT22;12380;51.118;4.176;2023-01-04T09:20:13;12.30;99.90
24252;DHT22;12380;51.118;4.176;2023-01-04T09:22:39;12.40;99.90
24252;DHT22;12380;51.118;4.176;2023-01-04T09:25:05;12.40;99.90
24252;DHT22;12380;51.118;4.176;2023-01-04T09:27:31;12.40;99.90
24252;DHT22;12380;51.118;4.176;2023-01-04T09:30:04;12.40;99.90
24252;DHT22;12380;51.118;4.176;2023-01-04T09:32:30;12.40;99.90
24252;DHT22;12380;51.118;4.176;2023-01-04T09:34:56;12.30;99.90
24252;DHT22;12380;51.118;4.176;2023-01-04T09:37:22;12.30;99.90
24252;DHT22;12380;51.118;4.176;2023-01-04T09:39:48;12.30;99.90
24252;DHT22;12380;51.118;4.176;2023-01-04T09:42:28;12.40;99.90
24252;DHT22;12380;51.118;4.176;2023-01-04T09:45:03;12.30;99.90
24252;DHT22;12380;51.118;4.176;2023-01-04T09:47:48;12.30;99.90
24252;DHT22;12380;51.118;4.176;2023-01-04T09:50:21;12.30;99.90
24252;DHT22;12380;51.118;4.176;2023-01-04T09:55:22;12.20;99.90
24252;DHT22;12380;51.118;4.176;2023-01-04T09:57:52;12.30;99.90
24252;DHT22;12380;51.118;4.176;2023-01-04T10:00:22;12.20;99.90
24252;DHT22;12380;51.118;4.176;2023-01-04T10:05:26;12.20;99.90
24252;DHT22;12380;51.118;4.176;2023-01-04T10:07:56;12.10;99.90
24252;DHT22;12380;51.118;4.176;2023-01-04T10:16:01;12.10;99.90
24252;DHT22;12380;51.118;4.176;2023-01-04T10:26:12;12.10;99.90
24252;DHT22;12380;51.118;4.176;2023-01-04T10:31:18;12.00;99.90
24252;DHT22;12380;51.118;4.176;2023-01-04T10:33:46;12.00;99.90
24252;DHT22;12380;51.118;4.176;2023-01-04T10:36:16;12.00;99.90
24252;DHT22;12380;51.118;4.176;2023-01-04T10:38:42;12.00;99.90
24252;DHT22;12380;51.118;4.176;2023-01-04T10:41:12;12.00;99.90
24252;DHT22;12380;51.118;4.176;2023-01-04T10:43:39;12.00;99.90
24252;DHT22;12380;51.118;4.176;2023-01-04T10:46:08;12.00;99.90
24252;DHT22;12380;51.118;4.176;2023-01-04T10:48:42;11.90;99.90
24252;DHT22;12380;51.118;4.176;2023-01-04T10:51:09;12.00;99.90
24252;DHT22;12380;51.118;4.176;2023-01-04T10:56:24;11.90;99.90
24252;DHT22;12380;51.118;4.176;2023-01-04T11:01:19;12.00;99.90
24252;DHT22;12380;51.118;4.176;2023-01-04T11:03:56;12.00;99.90
24252;DHT22;12380;51.118;4.176;2023-01-04T11:06:26;12.00;99.90
24252;DHT22;12380;51.118;4.176;2023-01-04T11:09:07;11.90;99.90
24252;DHT22;12380;51.118;4.176;2023-01-04T11:11:35;12.00;99.90
24252;DHT22;12380;51.118;4.176;2023-01-04T11:14:02;12.10;99.90
24252;DHT22;12380;51.118;4.176;2023-01-04T11:16:28;12.10;99.90
24252;DHT22;12380;51.118;4.176;2023-01-04T11:18:56;12.10;99.90
24252;DHT22;12380;51.118;4.176;2023-01-04T11:21:25;12.10;99.90
24252;DHT22;12380;51.118;4.176;2023-01-04T11:23:52;12.10;99.90
24252;DHT22;12380;51.118;4.176;2023-01-04T11:26:23;12.10;99.90
24252;DHT22;12380;51.118;4.176;2023-01-04T11:28:58;12.10;99.90
24252;DHT22;12380;51.118;4.176;2023-01-04T11:31:45;12.10;99.90
24252;DHT22;12380;51.118;4.176;2023-01-04T11:34:12;12.10;99.90
24252;DHT22;12380;51.118;4.176;2023-01-04T11:36:42;12.20;99.90
24252;DHT22;12380;51.118;4.176;2023-01-04T11:42:00;12.20;99.90
24252;DHT22;12380;51.118;4.176;2023-01-04T11:44:28;12.10;99.90
24252;DHT22;12380;51.118;4.176;2023-01-04T11:49:34;12.10;99.90
24252;DHT22;12380;51.118;4.176;2023-01-04T11:52:02;12.10;99.90
24252;DHT22;12380;51.118;4.176;2023-01-04T11:54:28;12.10;99.90
24252;DHT22;12380;51.118;4.176;2023-01-04T11:59:23;12.10;99.90
24252;DHT22;12380;51.118;4.176;2023-01-04T12:01:50;12.20;99.90
24252;DHT22;12380;51.118;4.176;2023-01-04T12:04:28;12.20;99.90
24252;DHT22;12380;51.118;4.176;2023-01-04T12:06:55;12.20;99.90
24252;DHT22;12380;51.118;4.176;2023-01-04T12:09:21;12.20;99.90
24252;DHT22;12380;51.118;4.176;2023-01-04T12:11:53;12.20;99.90
24252;DHT22;12380;51.118;4.176;2023-01-04T12:14:21;12.20;99.90
24252;DHT22;12380;51.118;4.176;2023-01-04T12:19:15;12.20;99.90
24252;DHT22;12380;51.118;4.176;2023-01-04T12:21:46;12.30;99.90
24252;DHT22;12380;51.118;4.176;2023-01-04T12:24:17;12.30;99.90
24252;DHT22;12380;51.118;4.176;2023-01-04T12:26:43;12.20;99.90
24252;DHT22;12380;51.118;4.176;2023-01-04T12:31:51;12.20;99.90
24252;DHT22;12380;51.118;4.176;2023-01-04T12:50:04;12.30;99.90
24252;DHT22;12380;51.118;4.176;2023-01-04T12:57:50;12.40;99.90
24252;DHT22;12380;51.118;4.176;2023-01-04T13:00:16;12.40;99.90
24252;DHT22;12380;51.118;4.176;2023-01-04T13:05:30;12.60;99.90
24252;DHT22;12380;51.118;4.176;2023-01-04T13:07:57;12.60;99.90
24252;DHT22;12380;51.118;4.176;2023-01-04T13:17:59;12.70;99.90
24252;DHT22;12380;51.118;4.176;2023-01-04T13:20:25;12.70;99.90
24252;DHT22;12380;51.118;4.176;2023-01-04T13:22:54;12.70;99.90
24252;DHT22;12380;51.118;4.176;2023-01-04T13:25:21;12.80;99.90
24252;DHT22;12380;51.118;4.176;2023-01-04T13:27:58;12.80;99.90
24252;DHT22;12380;51.118;4.176;2023-01-04T13:30:31;12.80;99.90
24252;DHT22;12380;51.118;4.176;2023-01-04T13:32:57;12.90;99.90
24252;DHT22;12380;51.118;4.176;2023-01-04T13:35:23;12.90;99.90
24252;DHT22;12380;51.118;4.176;2023-01-04T13:37:49;12.90;99.90
24252;DHT22;12380;51.118;4.176;2023-01-04T13:42:45;12.80;99.90
24252;DHT22;12380;51.118;4.176;2023-01-04T13:45:27;12.80;99.90
24252;DHT22;12380;51.118;4.176;2023-01-04T13:47:56;12.80;99.90
24252;DHT22;12380;51.118;4.176;2023-01-04T13:50:38;12.90;99.90
24252;DHT22;12380;51.118;4.176;2023-01-04T13:53:22;12.90;99.90
24252;DHT22;12380;51.118;4.176;2023-01-04T13:55:54;12.90;99.90
24252;DHT22;12380;51.118;4.176;2023-01-04T13:58:22;12.70;99.90
24252;DHT22;12380;51.118;4.176;2023-01-04T14:00:50;12.80;99.90
24252;DHT22;12380;51.118;4.176;2023-01-04T14:05:46;12.80;99.90
24252;DHT22;12380;51.118;4.176;2023-01-04T14:08:15;12.70;99.90
24252;DHT22;12380;51.118;4.176;2023-01-04T14:10:42;12.70;99.90
24252;DHT22;12380;51.118;4.176;2023-01-04T14:13:12;12.70;99.90
24252;DHT22;12380;51.118;4.176;2023-01-04T14:15:39;12.70;99.90
24252;DHT22;12380;51.118;4.176;2023-01-04T14:18:20;12.70;99.90
24252;DHT22;12380;51.118;4.176;2023-01-04T14:20:48;12.70;99.90
24252;DHT22;12380;51.118;4.176;2023-01-04T14:23:25;12.70;99.90
24252;DHT22;12380;51.118;4.176;2023-01-04T14:25:51;12.60;99.90
24252;DHT22;12380;51.118;4.176;2023-01-04T14:33:20;12.60;99.90
24252;DHT22;12380;51.118;4.176;2023-01-04T14:38:41;12.50;99.90
24252;DHT22;12380;51.118;4.176;2023-01-04T14:41:15;12.40;99.90
24252;DHT22;12380;51.118;4.176;2023-01-04T14:43:47;12.40;99.90
24252;DHT22;12380;51.118;4.176;2023-01-04T14:46:13;12.40;99.90
24252;DHT22;12380;51.118;4.176;2023-01-04T14:48:39;12.40;99.90
24252;DHT22;12380;51.118;4.176;2023-01-04T14:51:05;12.40;99.90
24252;DHT22;12380;51.118;4.176;2023-01-04T14:53:32;12.40;99.90
24252;DHT22;12380;51.118;4.176;2023-01-04T14:55:58;12.30;99.90
24252;DHT22;12380;51.118;4.176;2023-01-04T14:58:24;12.30;99.90
24252;DHT22;12380;51.118;4.176;2023-01-04T15:00:49;12.40;99.90
24252;DHT22;12380;51.118;4.176;2023-01-04T15:03:16;12.40;99.90
24252;DHT22;12380;51.118;4.176;2023-01-04T15:05:43;12.40;99.90
24252;DHT22;12380;51.118;4.176;2023-01-04T15:08:10;12.40;99.90
24252;DHT22;12380;51.118;4.176;2023-01-04T15:10:37;12.40;99.90
24252;DHT22;12380;51.118;4.176;2023-01-04T15:13:03;12.40;99.90
24252;DHT22;12380;51.118;4.176;2023-01-04T15:15:29;12.40;99.90
24252;DHT22;12380;51.118;4.176;2023-01-04T15:17:57;12.40;99.90
24252;DHT22;12380;51.118;4.176;2023-01-04T15:20:22;12.40;99.90
24252;DHT22;12380;51.118;4.176;2023-01-04T15:22:50;12.40;99.90
24252;DHT22;12380;51.118;4.176;2023-01-04T15:25:16;12.20;99.90
24252;DHT22;12380;51.118;4.176;2023-01-04T15:27:42;12.20;99.90
24252;DHT22;12380;51.118;4.176;2023-01-04T15:30:08;12.20;99.90
24252;DHT22;12380;51.118;4.176;2023-01-04T15:32:34;12.20;99.90
24252;DHT22;12380;51.118;4.176;2023-01-04T15:35:02;12.10;99.90
24252;DHT22;12380;51.118;4.176;2023-01-04T15:37:28;12.20;99.90
24252;DHT22;12380;51.118;4.176;2023-01-04T15:39:55;12.10;99.90
24252;DHT22;12380;51.118;4.176;2023-01-04T15:42:20;12.10;99.90
24252;DHT22;12380;51.118;4.176;2023-01-04T15:45:05;12.10;99.90
24252;DHT22;12380;51.118;4.176;2023-01-04T15:47:30;12.10;99.90
24252;DHT22;12380;51.118;4.176;2023-01-04T15:49:57;12.20;99.90
24252;DHT22;12380;51.118;4.176;2023-01-04T15:52:22;12.00;99.90
24252;DHT22;12380;51.118;4.176;2023-01-04T15:54:50;12.10;99.90
24252;DHT22;12380;51.118;4.176;2023-01-04T15:57:16;12.20;99.90
24252;DHT22;12380;51.118;4.176;2023-01-04T15:59:42;12.30;99.90
24252;DHT22;12380;51.118;4.176;2023-01-04T16:02:09;12.20;99.90
24252;DHT22;12380;51.118;4.176;2023-01-04T16:04:35;12.20;99.90
24252;DHT22;12380;51.118;4.176;2023-01-04T16:07:01;12.20;99.90
24252;DHT22;12380;51.118;4.176;2023-01-04T16:09:27;12.30;99.90
24252;DHT22;12380;51.118;4.176;2023-01-04T16:11:57;12.30;99.90
24252;DHT22;12380;51.118;4.176;2023-01-04T16:14:41;12.20;99.90
24252;DHT22;12380;51.118;4.176;2023-01-04T16:17:07;12.20;99.90
24252;DHT22;12380;51.118;4.176;2023-01-04T16:19:32;12.20;99.90
24252;DHT22;12380;51.118;4.176;2023-01-04T16:21:58;12.20;99.90
24252;DHT22;12380;51.118;4.176;2023-01-04T16:24:24;12.30;99.90
24252;DHT22;12380;51.118;4.176;2023-01-04T16:26:50;12.30;99.90
24252;DHT22;12380;51.118;4.176;2023-01-04T16:29:15;12.20;99.90
24252;DHT22;12380;51.118;4.176;2023-01-04T16:31:42;12.30;99.90
24252;DHT22;12380;51.118;4.176;2023-01-04T16:34:13;12.20;99.90
24252;DHT22;12380;51.118;4.176;2023-01-04T16:36:39;12.30;99.90
24252;DHT22;12380;51.118;4.176;2023-01-04T16:39:05;12.20;99.90
24252;DHT22;12380;51.118;4.176;2023-01-04T16:41:31;12.20;99.90
24252;DHT22;12380;51.118;4.176;2023-01-04T16:43:59;12.20;99.90
24252;DHT22;12380;51.118;4.176;2023-01-04T16:46:28;12.20;99.90
24252;DHT22;12380;51.118;4.176;2023-01-04T16:48:56;12.20;99.90
24252;DHT22;12380;51.118;4.176;2023-01-04T16:51:26;12.20;99.90
24252;DHT22;12380;51.118;4.176;2023-01-04T16:53:52;12.20;99.90
24252;DHT22;12380;51.118;4.176;2023-01-04T16:56:19;12.20;99.90
24252;DHT22;12380;51.118;4.176;2023-01-04T16:58:46;12.30;99.90
24252;DHT22;12380;51.118;4.176;2023-01-04T17:03:44;12.10;99.90
24252;DHT22;12380;51.118;4.176;2023-01-04T17:08:37;12.20;99.90
24252;DHT22;12380;51.118;4.176;2023-01-04T17:11:09;12.20;99.90
24252;DHT22;12380;51.118;4.176;2023-01-04T17:13:37;12.20;99.90
24252;DHT22;12380;51.118;4.176;2023-01-04T17:16:05;12.10;99.90
24252;DHT22;12380;51.118;4.176;2023-01-04T17:18:32;12.10;99.90
24252;DHT22;12380;51.118;4.176;2023-01-04T17:20:59;12.10;99.90
24252;DHT22;12380;51.118;4.176;2023-01-04T17:23:26;12.10;99.90
24252;DHT22;12380;51.118;4.176;2023-01-04T17:25:53;12.10;99.90
24252;DHT22;12380;51.118;4.176;2023-01-04T17:28:20;12.10;99.90
24252;DHT22;12380;51.118;4.176;2023-01-04T17:30:47;12.10;99.90
24252;DHT22;12380;51.118;4.176;2023-01-04T17:33:13;12.20;99.90
24252;DHT22;12380;51.118;4.176;2023-01-04T17:35:38;12.20;99.90
24252;DHT22;12380;51.118;4.176;2023-01-04T17:38:05;12.10;99.90
24252;DHT22;12380;51.118;4.176;2023-01-04T17:40:31;12.10;99.90
24252;DHT22;12380;51.118;4.176;2023-01-04T17:42:58;12.10;99.90
24252;DHT22;12380;51.118;4.176;2023-01-04T17:45:24;12.10;99.90
24252;DHT22;12380;51.118;4.176;2023-01-04T17:47:50;12.10;99.90
24252;DHT22;12380;51.118;4.176;2023-01-04T17:50:16;12.10;99.90
24252;DHT22;12380;51.118;4.176;2023-01-04T17:52:44;12.30;99.90